Welcome to Northern Hawkes Bay. New Zealand.
PWS Header
      nz Flag



Hit Counter


W3C Valid W3C Valid logo


    Wairoa

Select any of the Stations below to visit their websites.










Historic Data from Weather Underground
Select the location of interest below. Wairoa is the default. Please have patience, this Data is slow to load in.
Northern Hawkes Bay Historical Data
Daily Summary for March 27, 2017 Units:  Metric    English   Both
« Previous Day
Next Day »
Daily Weekly Monthly Yearly Custom
  High: Low: Average:
Temperature: 21.1 °C 15.4 °C 17.4 °C
Dew Point: 19.2 °C 15.1 °C 16.8 °C
Humidity: 99% 84% 96%
Wind Speed: 9.7km/h 0.0km/h 1.3km/h
Wind Gust: 15.8km/h - -
Wind- - SSW
Pressure: 1015.1 hPa 1008.0 hPa -
Precipitation: 15.0 mm    
Historical Graphs
 
 
Tabular Data for March 27, 2017
Time Temperature Dew Point Pressure Wind Wind Speed Wind Gust Humidity Rainfall Rate (Hourly) solar
00:02 17.5 °C 16.7 °C 1014.8 hPa Calm   6.1 km/h 95% 0.0 mm 0 W/m2
00:08 17.6 °C 16.8 °C 1015.1 hPa Calm   1.1 km/h 95% 0.0 mm 0 W/m2
00:14 17.6 °C 16.8 °C 1014.8 hPa Calm     95% 0.0 mm 0 W/m2
00:20 17.7 °C 16.9 °C 1014.8 hPa Calm     95% 0.0 mm 0 W/m2
00:26 17.7 °C 16.9 °C 1014.4 hPa Calm     95% 0.0 mm 0 W/m2
00:32 17.6 °C 16.6 °C 1014.4 hPa Calm     94% 0.0 mm 0 W/m2
00:38 17.7 °C 16.7 °C 1014.4 hPa ENE 2.6 km/h 3.5 km/h 94% 0.0 mm 0 W/m2
00:44 17.7 °C 16.7 °C 1014.1 hPa ENE 1.1 km/h 5.0 km/h 94% 0.0 mm 0 W/m2
00:50 17.6 °C 16.6 °C 1014.1 hPa Calm   5.0 km/h 94% 0.0 mm 0 W/m2
00:56 17.3 °C 16.3 °C 1014.1 hPa Calm   1.1 km/h 94% 0.0 mm 0 W/m2
01:02 17.1 °C 15.9 °C 1014.1 hPa Calm     93% 0.0 mm 0 W/m2
01:08 17.0 °C 15.9 °C 1014.1 hPa Calm     93% 0.0 mm 0 W/m2
01:14 16.8 °C 16.0 °C 1014.1 hPa Calm     95% 0.0 mm 0 W/m2
01:20 16.7 °C 15.9 °C 1014.1 hPa Calm     95% 0.0 mm 0 W/m2
01:26 16.5 °C 15.7 °C 1014.1 hPa Calm     95% 0.0 mm 0 W/m2
01:32 16.4 °C 15.6 °C 1014.1 hPa Calm     95% 0.0 mm 0 W/m2
01:38 16.2 °C 15.4 °C 1013.8 hPa Calm     95% 0.0 mm 0 W/m2
01:44 16.1 °C 15.3 °C 1013.8 hPa Calm     95% 0.0 mm 0 W/m2
01:50 16.0 °C 15.2 °C 1013.8 hPa Calm     95% 0.0 mm 0 W/m2
01:56 16.1 °C 15.4 °C 1013.8 hPa Calm     96% 0.0 mm 0 W/m2
02:02 16.1 °C 15.4 °C 1013.4 hPa Calm     96% 0.0 mm 0 W/m2
02:08 15.9 °C 15.4 °C 1013.4 hPa Calm     97% 0.0 mm 0 W/m2
02:14 15.8 °C 15.3 °C 1013.4 hPa Calm     97% 0.0 mm 0 W/m2
02:20 15.7 °C 15.2 °C 1013.4 hPa Calm     97% 0.0 mm 0 W/m2
02:26 15.7 °C 15.4 °C 1013.1 hPa NW 3.5 km/h 6.1 km/h 98% 0.0 mm 0 W/m2
02:32 15.6 °C 15.3 °C 1013.4 hPa Calm   6.1 km/h 98% 0.0 mm 0 W/m2
02:38 15.6 °C 15.3 °C 1013.1 hPa NE 1.1 km/h 3.5 km/h 98% 0.0 mm 0 W/m2
02:44 15.4 °C 15.1 °C 1013.1 hPa Calm   2.6 km/h 98% 0.0 mm 0 W/m2
02:50 15.5 °C 15.3 °C 1013.1 hPa Calm   1.1 km/h 99% 0.0 mm 0 W/m2
02:56 15.5 °C 15.3 °C 1013.1 hPa Calm     99% 0.0 mm 0 W/m2
03:02 15.6 °C 15.4 °C 1012.8 hPa Calm     99% 0.0 mm 0 W/m2
03:08 15.5 °C 15.3 °C 1012.8 hPa Calm     99% 0.0 mm 0 W/m2
03:14 15.5 °C 15.3 °C 1012.8 hPa Calm     99% 0.0 mm 0 W/m2
03:20 15.4 °C 15.3 °C 1012.8 hPa North 3.5 km/h 5.0 km/h 99% 0.0 mm 0 W/m2
03:26 15.5 °C 15.3 °C 1012.8 hPa Calm   5.0 km/h 99% 0.0 mm 0 W/m2
03:32 15.6 °C 15.4 °C 1012.8 hPa Calm   5.0 km/h 99% 0.0 mm 0 W/m2
03:38 15.7 °C 15.6 °C 1012.8 hPa Calm     99% 0.0 mm 0 W/m2
03:44 15.7 °C 15.6 °C 1012.4 hPa Calm     99% 0.0 mm 0 W/m2
03:50 15.7 °C 15.6 °C 1012.8 hPa Calm     99% 0.0 mm 0 W/m2
03:56 15.8 °C 15.7 °C 1012.4 hPa Calm     99% 0.0 mm 0 W/m2
04:02 15.9 °C 15.8 °C 1012.4 hPa Calm     99% 0.0 mm 0 W/m2
04:08 15.8 °C 15.7 °C 1012.4 hPa Calm     99% 0.0 mm 0 W/m2
04:14 15.8 °C 15.7 °C 1012.4 hPa Calm     99% 0.0 mm 0 W/m2
04:20 15.8 °C 15.7 °C 1012.4 hPa Calm     99% 0.0 mm 0 W/m2
04:26 15.8 °C 15.7 °C 1012.1 hPa Calm     99% 0.0 mm 0 W/m2
04:32 15.8 °C 15.7 °C 1012.1 hPa Calm     99% 0.0 mm 0 W/m2
04:38 15.8 °C 15.7 °C 1012.1 hPa Calm     99% 0.0 mm 0 W/m2
04:44 15.8 °C 15.7 °C 1012.1 hPa Calm     99% 0.0 mm 0 W/m2
04:50 15.9 °C 15.8 °C 1011.7 hPa Calm     99% 0.0 mm 0 W/m2
04:56 15.8 °C 15.7 °C 1011.7 hPa Calm     99% 0.0 mm 0 W/m2
05:02 15.8 °C 15.7 °C 1011.7 hPa Calm     99% 0.0 mm 0 W/m2
05:08 15.8 °C 15.7 °C 1011.7 hPa Calm     99% 0.0 mm 0 W/m2
05:14 15.8 °C 15.7 °C 1011.7 hPa Calm     99% 0.0 mm 0 W/m2
05:20 15.8 °C 15.7 °C 1011.4 hPa Calm     99% 0.0 mm 0 W/m2
05:26 15.8 °C 15.7 °C 1011.7 hPa Calm     99% 0.0 mm 0 W/m2
05:32 15.7 °C 15.6 °C 1011.7 hPa Calm     99% 0.0 mm 0 W/m2
05:38 15.7 °C 15.6 °C 1011.4 hPa Calm     99% 0.0 mm 0 W/m2
05:44 15.7 °C 15.6 °C 1011.4 hPa Calm     99% 0.0 mm 0 W/m2
05:50 15.7 °C 15.6 °C 1011.4 hPa Calm     99% 0.0 mm 0 W/m2
05:56 15.7 °C 15.6 °C 1011.4 hPa Calm     99% 0.0 mm 0 W/m2
06:02 15.7 °C 15.6 °C 1011.4 hPa Calm     99% 0.0 mm 0 W/m2
06:08 15.7 °C 15.6 °C 1011.4 hPa Calm     99% 0.0 mm 0 W/m2
06:14 15.7 °C 15.6 °C 1011.1 hPa Calm     99% 0.0 mm 0 W/m2
06:20 15.7 °C 15.6 °C 1011.1 hPa Calm     99% 0.3 mm 0 W/m2
06:26 15.8 °C 15.7 °C 1011.1 hPa Calm     99% 0.3 mm 0 W/m2
06:32 15.8 °C 15.7 °C 1011.1 hPa Calm     99% 0.5 mm 0 W/m2
06:38 15.8 °C 15.7 °C 1011.1 hPa Calm     99% 1.0 mm 0 W/m2
06:44 15.7 °C 15.6 °C 1011.1 hPa Calm     99% 1.0 mm 0 W/m2
06:50 15.8 °C 15.7 °C 1011.1 hPa Calm     99% 1.0 mm 0 W/m2
06:56 15.8 °C 15.7 °C 1011.1 hPa Calm     99% 1.3 mm 0 W/m2
07:02 15.8 °C 15.7 °C 1011.4 hPa Calm     99% 1.5 mm 0 W/m2
07:08 15.8 °C 15.7 °C 1010.7 hPa Calm     99% 1.5 mm 0 W/m2
07:14 15.8 °C 15.7 °C 1011.1 hPa Calm     99% 1.8 mm 0 W/m2
07:20 15.8 °C 15.7 °C 1011.1 hPa Calm     99% 1.5 mm 0 W/m2
07:26 15.8 °C 15.7 °C 1010.7 hPa Calm     99% 1.5 mm 0 W/m2
07:32 15.9 °C 15.8 °C 1011.1 hPa North 3.5 km/h 6.1 km/h 99% 1.3 mm 0 W/m2
07:38 15.9 °C 15.8 °C 1011.1 hPa Calm   6.1 km/h 99% 1.0 mm 0 W/m2
07:44 15.9 °C 15.8 °C 1010.7 hPa Calm   5.0 km/h 99% 1.0 mm 0 W/m2
07:50 15.9 °C 15.8 °C 1011.1 hPa Calm     99% 1.0 mm 0 W/m2
07:56 15.8 °C 15.7 °C 1010.7 hPa Calm     99% 0.5 mm 0 W/m2
08:02 15.8 °C 15.7 °C 1010.7 hPa Calm     99% 0.3 mm 0 W/m2
08:08 15.8 °C 15.7 °C 1010.7 hPa Calm     99% 0.3 mm 1 W/m2
08:14 15.8 °C 15.7 °C 1010.7 hPa Calm     99% 0.5 mm 2 W/m2
08:20 15.8 °C 15.7 °C 1010.4 hPa Calm   1.1 km/h 99% 1.0 mm 4 W/m2
08:26 15.8 °C 15.7 °C 1010.7 hPa Calm   1.1 km/h 99% 1.3 mm 4 W/m2
08:32 15.9 °C 15.8 °C 1010.4 hPa Calm     99% 1.5 mm 6 W/m2
08:38 15.9 °C 15.8 °C 1010.7 hPa Calm     99% 1.8 mm 9 W/m2
08:44 16.0 °C 15.7 °C 1010.4 hPa Calm   1.1 km/h 98% 2.8 mm 23 W/m2
08:50 16.2 °C 15.9 °C 1010.4 hPa Calm   3.5 km/h 98% 2.8 mm 49 W/m2
08:56 16.2 °C 15.9 °C 1010.4 hPa Calm   1.1 km/h 98% 2.8 mm 74 W/m2
09:02 16.4 °C 16.1 °C 1010.7 hPa NNW 1.1 km/h 6.1 km/h 98% 2.8 mm 94 W/m2
09:08 16.6 °C 16.3 °C 1010.7 hPa NW 3.5 km/h 6.1 km/h 98% 2.8 mm 95 W/m2
09:14 16.6 °C 16.3 °C 1010.7 hPa NW 6.1 km/h 8.7 km/h 98% 2.0 mm 129 W/m2
09:20 16.7 °C 16.4 °C 1010.7 hPa NW 2.6 km/h 8.7 km/h 98% 1.8 mm 142 W/m2
09:26 16.9 °C 16.6 °C 1010.4 hPa NW 3.5 km/h 8.7 km/h 98% 1.5 mm 166 W/m2
09:32 17.3 °C 16.8 °C 1010.7 hPa NW 2.6 km/h 7.2 km/h 97% 1.0 mm 176 W/m2
09:38 17.5 °C 17.1 °C 1010.0 hPa Calm   6.1 km/h 97% 0.5 mm 143 W/m2
09:46 17.9 °C 17.4 °C 1010.4 hPa NW 2.6 km/h 5.0 km/h 97% 0.0 mm 224 W/m2
09:52 18.2 °C 18.1 °C 1010.0 hPa Calm   5.0 km/h 99% 0.0 mm 218 W/m2
09:58 18.5 °C 18.3 °C 1010.0 hPa Calm   5.0 km/h 99% 0.0 mm 301 W/m2
10:04 19.1 °C 18.9 °C 1010.0 hPa Calm   6.1 km/h 99% 0.0 mm 279 W/m2
10:10 18.9 °C 18.8 °C 1010.0 hPa SSW 9.7 km/h 11.1 km/h 99% 0.3 mm 211 W/m2
10:16 18.5 °C 18.3 °C 1010.0 hPa SW 9.7 km/h 15.8 km/h 99% 0.3 mm 228 W/m2
10:22 18.4 °C 18.1 °C 1010.0 hPa SW 6.1 km/h 15.8 km/h 98% 0.3 mm 201 W/m2
10:28 18.6 °C 18.1 °C 1010.0 hPa SSW 6.1 km/h 13.4 km/h 97% 0.3 mm 202 W/m2
10:34 18.5 °C 17.9 °C 1010.0 hPa SW 7.2 km/h 12.2 km/h 96% 0.3 mm 218 W/m2
10:40 18.4 °C 17.8 °C 1010.0 hPa SW 5.0 km/h 11.1 km/h 96% 0.3 mm 223 W/m2
10:46 18.9 °C 18.4 °C 1010.0 hPa SW 8.7 km/h 11.1 km/h 97% 0.3 mm 234 W/m2
10:52 18.7 °C 18.1 °C 1010.0 hPa SW 8.7 km/h 11.1 km/h 96% 0.3 mm 323 W/m2
10:58 19.2 °C 18.4 °C 1010.0 hPa SW 6.1 km/h 11.1 km/h 95% 0.3 mm 339 W/m2
11:04 19.4 °C 18.4 °C 1010.0 hPa SW 7.2 km/h 11.1 km/h 94% 0.3 mm 306 W/m2
11:10 19.6 °C 18.6 °C 1010.0 hPa SW 7.2 km/h 11.1 km/h 94% 0.0 mm 200 W/m2
11:16 19.4 °C 18.3 °C 1010.0 hPa SW 7.2 km/h 11.1 km/h 93% 0.0 mm 159 W/m2
11:22 19.2 °C 18.1 °C 1009.7 hPa SW 8.7 km/h 12.2 km/h 93% 0.0 mm 272 W/m2
11:28 19.4 °C 18.4 °C 1009.7 hPa SW 3.5 km/h 13.4 km/h 94% 0.0 mm 312 W/m2
11:34 19.9 °C 18.9 °C 1010.0 hPa SW 5.0 km/h 13.4 km/h 94% 0.0 mm 192 W/m2
11:40 20.0 °C 18.5 °C 1009.7 hPa SW 6.1 km/h 9.7 km/h 91% 0.0 mm 211 W/m2
11:46 20.0 °C 18.5 °C 1009.7 hPa SSW 8.7 km/h 11.1 km/h 91% 0.0 mm 138 W/m2
11:52 19.6 °C 18.1 °C 1009.7 hPa SSW 6.1 km/h 12.2 km/h 91% 0.0 mm 132 W/m2
11:58 19.3 °C 17.8 °C 1009.7 hPa SW 3.5 km/h 12.2 km/h 91% 0.0 mm 146 W/m2
12:04 19.2 °C 17.9 °C 1009.7 hPa SW 6.1 km/h 12.2 km/h 92% 0.0 mm 149 W/m2
12:10 19.3 °C 18.2 °C 1009.7 hPa SW 3.5 km/h 9.7 km/h 93% 0.0 mm 144 W/m2
12:16 19.5 °C 18.3 °C 1009.7 hPa SW 5.0 km/h 9.7 km/h 93% 0.0 mm 173 W/m2
12:22 19.7 °C 18.6 °C 1009.4 hPa SSW 5.0 km/h 7.2 km/h 93% 0.0 mm 189 W/m2
12:28 20.1 °C 18.6 °C 1009.4 hPa South 3.5 km/h 7.2 km/h 91% 0.0 mm 208 W/m2
12:34 20.2 °C 18.5 °C 1009.4 hPa South 5.0 km/h 7.2 km/h 90% 0.0 mm 179 W/m2
12:40 20.2 °C 18.3 °C 1009.4 hPa South 2.6 km/h 7.2 km/h 89% 0.0 mm 188 W/m2
12:46 20.4 °C 18.6 °C 1009.4 hPa SSW 3.5 km/h 7.2 km/h 89% 0.0 mm 188 W/m2
12:52 20.5 °C 18.7 °C 1009.4 hPa SW 6.1 km/h 8.7 km/h 89% 0.0 mm 184 W/m2
12:58 20.5 °C 18.4 °C 1009.0 hPa SSW 2.6 km/h 8.7 km/h 88% 0.0 mm 239 W/m2
13:04 20.7 °C 18.5 °C 1009.0 hPa SSW 5.0 km/h 7.2 km/h 87% 0.0 mm 276 W/m2
13:10 20.7 °C 18.3 °C 1009.0 hPa South 3.5 km/h 11.1 km/h 86% 0.0 mm 217 W/m2
13:16 20.8 °C 18.6 °C 1009.0 hPa SSW 3.5 km/h 11.1 km/h 87% 0.0 mm 254 W/m2
13:22 21.1 °C 18.5 °C 1009.4 hPa SSE 2.6 km/h 6.1 km/h 85% 0.0 mm 204 W/m2
13:28 20.6 °C 17.8 °C 1009.0 hPa SSE 6.1 km/h 8.7 km/h 84% 0.0 mm 247 W/m2
13:34 20.4 °C 18.2 °C 1009.0 hPa South 3.5 km/h 8.7 km/h 87% 0.0 mm 249 W/m2
13:40 20.4 °C 18.2 °C 1009.0 hPa SSW 3.5 km/h 7.2 km/h 87% 0.0 mm 207 W/m2
13:46 20.4 °C 18.4 °C 1009.0 hPa SSW 3.5 km/h 7.2 km/h 88% 0.0 mm 151 W/m2
13:52 20.2 °C 18.3 °C 1009.0 hPa WSW 2.6 km/h 6.1 km/h 89% 0.0 mm 57 W/m2
13:58 19.8 °C 18.3 °C 1009.4 hPa WNW 9.7 km/h 14.8 km/h 91% 0.3 mm 53 W/m2
14:04 19.3 °C 18.0 °C 1009.0 hPa NW 6.1 km/h 14.8 km/h 92% 1.5 mm 113 W/m2
14:10 19.3 °C 18.3 °C 1008.4 hPa NW 2.6 km/h 11.1 km/h 94% 1.5 mm 163 W/m2
14:16 19.6 °C 18.6 °C 1008.4 hPa Calm   5.0 km/h 94% 1.5 mm 189 W/m2
14:22 20.0 °C 19.0 °C 1008.4 hPa SE 2.6 km/h 3.5 km/h 94% 1.8 mm 322 W/m2
14:28 20.3 °C 19.2 °C 1008.4 hPa SE 2.6 km/h 5.0 km/h 93% 1.8 mm 233 W/m2
14:34 20.3 °C 19.0 °C 1008.4 hPa SSE 1.1 km/h 3.5 km/h 92% 1.8 mm 194 W/m2
14:40 20.1 °C 18.8 °C 1008.0 hPa SSW 3.5 km/h 7.2 km/h 92% 1.8 mm 206 W/m2
14:46 19.8 °C 18.7 °C 1008.0 hPa SSW 2.6 km/h 7.2 km/h 93% 1.8 mm 155 W/m2
14:52 19.6 °C 18.6 °C 1008.4 hPa SSW 1.1 km/h 7.2 km/h 94% 1.8 mm 175 W/m2
14:58 20.1 °C 18.9 °C 1008.4 hPa Calm   6.1 km/h 93% 1.0 mm 367 W/m2
15:04 20.4 °C 19.2 °C 1008.4 hPa SE 5.0 km/h 6.1 km/h 93% 0.3 mm 221 W/m2
15:10 20.1 °C 18.8 °C 1008.4 hPa SE 1.1 km/h 6.1 km/h 92% 0.3 mm 55 W/m2
15:16 19.9 °C 18.9 °C 1008.4 hPa Calm   6.1 km/h 94% 0.3 mm 24 W/m2
15:22 19.7 °C 18.7 °C 1008.0 hPa SE 1.1 km/h 5.0 km/h 94% 1.0 mm 37 W/m2
15:28 19.4 °C 18.4 °C 1008.4 hPa SSE 1.1 km/h 6.1 km/h 94% 1.5 mm 34 W/m2
15:34 19.0 °C 18.2 °C 1008.4 hPa Calm   6.1 km/h 95% 3.0 mm 40 W/m2
15:40 18.9 °C 18.3 °C 1008.4 hPa Calm   2.6 km/h 96% 3.8 mm 36 W/m2
15:46 18.8 °C 18.2 °C 1008.7 hPa WNW 3.5 km/h 6.1 km/h 96% 4.3 mm 21 W/m2
15:52 18.2 °C 17.6 °C 1008.4 hPa Calm   6.1 km/h 96% 4.8 mm 18 W/m2
15:58 17.8 °C 17.0 °C 1008.4 hPa NE 1.1 km/h 3.5 km/h 95% 5.3 mm 17 W/m2
16:04 17.6 °C 16.8 °C 1008.4 hPa ESE 2.6 km/h 5.0 km/h 95% 6.1 mm 14 W/m2
16:10 17.5 °C 16.7 °C 1008.7 hPa NNE 2.6 km/h 6.1 km/h 95% 6.1 mm 12 W/m2
16:16 17.4 °C 16.6 °C 1008.4 hPa Calm   6.1 km/h 95% 6.3 mm 13 W/m2
16:22 17.3 °C 16.7 °C 1008.4 hPa Calm   1.1 km/h 96% 6.1 mm 13 W/m2
16:28 17.2 °C 16.6 °C 1008.0 hPa Calm   2.6 km/h 96% 5.6 mm 13 W/m2
16:34 17.2 °C 16.6 °C 1008.0 hPa Calm   2.6 km/h 96% 4.3 mm 13 W/m2
16:40 17.3 °C 16.7 °C 1008.0 hPa Calm   2.6 km/h 96% 3.6 mm 14 W/m2
16:46 17.3 °C 16.7 °C 1008.0 hPa Calm   6.1 km/h 96% 3.6 mm 17 W/m2
16:52 17.3 °C 16.8 °C 1008.0 hPa NE 3.5 km/h 6.1 km/h 97% 3.0 mm 18 W/m2
16:58 17.3 °C 16.8 °C 1008.0 hPa NE 1.1 km/h 6.1 km/h 97% 2.0 mm 18 W/m2
17:04 17.3 °C 16.8 °C 1008.0 hPa ENE 1.1 km/h 6.1 km/h 97% 2.0 mm 20 W/m2
17:10 17.4 °C 16.9 °C 1008.4 hPa ENE 3.5 km/h 7.2 km/h 97% 2.0 mm 32 W/m2
17:16 17.4 °C 16.9 °C 1008.4 hPa NE 1.1 km/h 7.2 km/h 97% 1.8 mm 77 W/m2
17:22 17.6 °C 17.1 °C 1008.4 hPa NE 2.6 km/h 6.1 km/h 97% 1.3 mm 110 W/m2
17:28 17.8 °C 17.3 °C 1008.4 hPa Calm   6.1 km/h 97% 1.0 mm 95 W/m2
17:34 17.8 °C 17.3 °C 1008.4 hPa Calm   6.1 km/h 97% 0.5 mm 78 W/m2
17:40 17.9 °C 17.4 °C 1008.4 hPa Calm   2.6 km/h 97% 0.5 mm 88 W/m2
17:46 18.0 °C 17.8 °C 1008.4 hPa Calm   2.6 km/h 99% 0.3 mm 83 W/m2
17:52 18.1 °C 17.9 °C 1008.7 hPa Calm     99% 0.3 mm 89 W/m2
17:58 18.1 °C 17.9 °C 1008.4 hPa Calm     99% 0.3 mm 92 W/m2
18:04 18.2 °C 18.1 °C 1008.7 hPa Calm   5.0 km/h 99% 0.0 mm 92 W/m2
18:10 18.1 °C 17.9 °C 1008.7 hPa Calm   2.6 km/h 99% 0.0 mm 78 W/m2
18:16 18.1 °C 17.9 °C 1008.4 hPa Calm     99% 0.0 mm 62 W/m2
18:22 18.2 °C 18.1 °C 1008.4 hPa Calm     99% 0.0 mm 47 W/m2
18:28 18.2 °C 18.1 °C 1008.0 hPa Calm     99% 0.0 mm 29 W/m2
18:34 18.2 °C 18.1 °C 1008.4 hPa Calm     99% 0.0 mm 19 W/m2
18:40 18.1 °C 17.9 °C 1008.4 hPa Calm     99% 0.0 mm 14 W/m2
18:46 18.0 °C 17.8 °C 1008.4 hPa Calm     99% 0.0 mm 11 W/m2
18:52 17.9 °C 17.4 °C 1008.4 hPa Calm     97% 0.0 mm 7 W/m2
19:14 17.6 °C 17.1 °C 1008.4 hPa Calm   5.0 km/h 97% 0.0 mm 0 W/m2
19:20 17.5 °C 17.1 °C 1008.4 hPa Calm   3.5 km/h 97% 0.0 mm 0 W/m2
19:26 17.4 °C 16.9 °C 1008.4 hPa Calm   3.5 km/h 97% 0.0 mm 0 W/m2
19:32 17.4 °C 16.9 °C 1008.4 hPa Calm   2.6 km/h 97% 0.0 mm 0 W/m2
19:38 17.3 °C 16.8 °C 1008.4 hPa Calm     97% 0.0 mm 0 W/m2
19:44 17.3 °C 16.8 °C 1008.4 hPa Calm     97% 0.0 mm 0 W/m2
19:50 17.3 °C 16.8 °C 1008.0 hPa Calm     97% 0.3 mm 0 W/m2
19:56 17.2 °C 16.7 °C 1008.0 hPa Calm     97% 0.3 mm 0 W/m2
20:02 17.1 °C 16.6 °C 1008.0 hPa Calm     97% 0.3 mm 0 W/m2
20:08 17.1 °C 16.6 °C 1008.4 hPa Calm     97% 0.3 mm 0 W/m2
20:14 17.1 °C 16.6 °C 1008.4 hPa Calm   1.1 km/h 97% 0.3 mm 0 W/m2
20:20 17.0 °C 16.6 °C 1008.7 hPa Calm   3.5 km/h 97% 0.3 mm 0 W/m2
20:26 17.0 °C 16.6 °C 1009.0 hPa NW 2.6 km/h 6.1 km/h 97% 0.3 mm 0 W/m2
20:32 17.0 °C 16.6 °C 1009.0 hPa NW 1.1 km/h 6.1 km/h 97% 0.3 mm 0 W/m2
20:38 16.9 °C 16.6 °C 1009.4 hPa Calm   6.1 km/h 98% 0.3 mm 0 W/m2
20:44 16.8 °C 16.5 °C 1009.4 hPa Calm   3.5 km/h 98% 0.3 mm 0 W/m2
20:50 16.9 °C 16.6 °C 1009.4 hPa NW 1.1 km/h 5.0 km/h 98% 0.0 mm 0 W/m2
20:56 16.9 °C 16.6 °C 1009.4 hPa Calm   5.0 km/h 98% 0.0 mm 0 W/m2
21:02 16.8 °C 16.5 °C 1009.4 hPa Calm     98% 0.0 mm 0 W/m2
21:08 16.9 °C 16.6 °C 1009.4 hPa Calm     98% 0.0 mm 0 W/m2
21:14 16.9 °C 16.6 °C 1009.4 hPa Calm     98% 0.0 mm 0 W/m2
21:20 16.9 °C 16.6 °C 1009.4 hPa Calm     98% 0.0 mm 0 W/m2
21:42 17.0 °C 16.6 °C 1010.0 hPa Calm     97% 0.0 mm 0 W/m2
21:48 16.9 °C 16.6 °C 1010.0 hPa Calm     98% 0.0 mm 0 W/m2
21:54 16.9 °C 16.6 °C 1010.0 hPa Calm     98% 0.0 mm 0 W/m2
22:00 16.8 °C 16.5 °C 1010.0 hPa Calm     98% 0.0 mm 0 W/m2
22:06 16.7 °C 16.4 °C 1010.0 hPa Calm     98% 0.0 mm 0 W/m2
22:12 16.7 °C 16.4 °C 1010.0 hPa Calm     98% 0.0 mm 0 W/m2
22:18 16.7 °C 16.4 °C 1010.0 hPa Calm     98% 0.0 mm 0 W/m2
22:24 16.6 °C 16.3 °C 1010.4 hPa Calm     98% 0.0 mm 0 W/m2
22:30 16.4 °C 16.1 °C 1010.0 hPa Calm     98% 0.0 mm 0 W/m2
22:36 16.2 °C 15.9 °C 1010.4 hPa Calm     98% 0.0 mm 0 W/m2
22:42 16.2 °C 15.9 °C 1010.4 hPa Calm     98% 0.0 mm 0 W/m2
22:48 16.2 °C 15.9 °C 1010.4 hPa Calm     98% 0.0 mm 0 W/m2
22:54 16.2 °C 15.9 °C 1010.4 hPa Calm     98% 0.0 mm 0 W/m2
23:00 16.4 °C 16.1 °C 1010.7 hPa Calm     98% 0.0 mm 0 W/m2
23:06 16.5 °C 16.2 °C 1010.7 hPa Calm     98% 0.0 mm 0 W/m2
23:12 16.5 °C 16.2 °C 1010.7 hPa Calm     98% 0.0 mm 0 W/m2
23:18 16.5 °C 16.2 °C 1010.7 hPa Calm     98% 0.0 mm 0 W/m2
23:24 16.6 °C 16.3 °C 1010.7 hPa Calm     98% 0.0 mm 0 W/m2
23:30 16.7 °C 16.4 °C 1010.7 hPa Calm     98% 0.0 mm 0 W/m2
23:36 16.7 °C 16.4 °C 1010.7 hPa Calm     98% 0.0 mm 0 W/m2
23:42 16.8 °C 16.5 °C 1010.7 hPa Calm     98% 0.0 mm 0 W/m2
23:48 16.8 °C 16.5 °C 1010.7 hPa Calm     98% 0.0 mm 0 W/m2
23:54 16.8 °C 16.5 °C 1010.7 hPa Calm     98% 0.0 mm 0 W/m2
Northern Hawkes Bay. New Zealand Historic Data
Compliments of Weather Underground - 2 mb